createdAt,value
2022-12-07T00:02:19.384Z,11.32
2022-12-07T00:05:06.213Z,8.38
2022-12-07T00:07:52.808Z,8.93
2022-12-07T00:10:39.069Z,9.30
2022-12-07T00:13:25.106Z,9.38
2022-12-07T00:16:22.023Z,9.35
2022-12-07T00:19:08.596Z,9.38
2022-12-07T00:21:54.487Z,7.63
2022-12-07T00:24:40.345Z,10.23
2022-12-07T00:27:26.233Z,9.25
2022-12-07T00:30:12.439Z,10.55
2022-12-07T00:32:58.790Z,8.20
2022-12-07T00:35:44.753Z,10.80
2022-12-07T00:38:32.396Z,9.88
2022-12-07T00:41:22.913Z,8.35
2022-12-07T00:44:09.193Z,8.45
2022-12-07T00:46:56.727Z,9.13
2022-12-07T00:49:43.063Z,9.43
2022-12-07T00:52:29.367Z,8.55
2022-12-07T00:55:15.505Z,9.38
2022-12-07T00:58:01.747Z,8.07
2022-12-07T01:00:49.978Z,8.75
2022-12-07T01:03:36.549Z,8.20
2022-12-07T01:06:24.280Z,9.13
2022-12-07T01:09:10.674Z,9.05
2022-12-07T01:11:56.815Z,8.00
2022-12-07T01:14:43.437Z,8.70
2022-12-07T01:17:30.080Z,7.60
2022-12-07T01:20:16.892Z,9.35
2022-12-07T01:23:02.947Z,8.90
2022-12-07T01:25:57.557Z,8.80
2022-12-07T01:28:44.471Z,7.55
2022-12-07T01:31:31.172Z,9.48
2022-12-07T01:34:17.125Z,9.90
2022-12-07T01:37:03.151Z,8.77
2022-12-07T01:39:52.962Z,8.70
2022-12-07T01:42:39.156Z,10.05
2022-12-07T01:45:39.918Z,8.43
2022-12-07T01:48:39.055Z,9.45
2022-12-07T01:52:16.621Z,7.28
2022-12-07T01:55:07.110Z,8.68
2022-12-07T01:57:55.201Z,9.40
2022-12-07T02:00:42.502Z,8.90
2022-12-07T02:03:45.941Z,9.20
2022-12-07T02:06:35.270Z,8.68
2022-12-07T02:09:21.535Z,9.30
2022-12-07T02:12:07.773Z,9.55
2022-12-07T02:14:53.889Z,7.80
2022-12-07T02:18:16.840Z,8.57
2022-12-07T02:21:24.002Z,9.63
2022-12-07T02:24:32.923Z,8.10
2022-12-07T02:27:45.985Z,8.45
2022-12-07T02:30:36.450Z,9.68
2022-12-07T02:38:54.522Z,9.38
2022-12-07T02:41:47.289Z,8.30
2022-12-07T02:44:34.564Z,9.48
2022-12-07T02:47:22.673Z,9.93
2022-12-07T02:50:09.361Z,8.85
2022-12-07T02:52:55.912Z,9.50
2022-12-07T02:55:43.079Z,9.43
2022-12-07T02:58:43.108Z,10.80
2022-12-07T03:01:53.388Z,10.70
2022-12-07T03:05:03.831Z,11.15
2022-12-07T03:08:05.624Z,9.40
2022-12-07T03:10:57.102Z,10.48
2022-12-07T03:14:02.166Z,10.80
2022-12-07T03:17:03.894Z,9.40
2022-12-07T03:19:52.614Z,9.75
2022-12-07T03:22:42.429Z,8.48
2022-12-07T03:25:29.865Z,8.68
2022-12-07T03:28:20.805Z,8.65
2022-12-07T03:31:39.903Z,8.80
2022-12-07T03:34:33.996Z,10.35
2022-12-07T03:38:03.650Z,10.02
2022-12-07T03:41:02.824Z,9.43
2022-12-07T03:43:49.205Z,9.48
2022-12-07T03:46:49.052Z,9.40
2022-12-07T03:49:51.534Z,9.88
2022-12-07T03:52:45.865Z,10.32
2022-12-07T03:58:22.893Z,11.07
2022-12-07T04:01:08.853Z,9.48
2022-12-07T04:03:54.764Z,10.88
2022-12-07T04:06:40.644Z,10.38
2022-12-07T04:09:26.815Z,9.63
2022-12-07T04:12:13.101Z,9.07
2022-12-07T04:14:59.943Z,9.80
2022-12-07T04:17:45.734Z,9.48
2022-12-07T04:20:31.618Z,9.40
2022-12-07T04:23:17.649Z,10.82
2022-12-07T04:26:03.803Z,9.38
2022-12-07T04:28:50.147Z,8.23
2022-12-07T04:31:37.043Z,10.73
2022-12-07T04:34:23.125Z,8.07
2022-12-07T04:37:09.211Z,9.02
2022-12-07T04:39:55.255Z,8.38
2022-12-07T04:42:41.805Z,8.32
2022-12-07T04:45:27.709Z,8.13
2022-12-07T04:48:13.956Z,8.48
2022-12-07T04:51:00.539Z,9.10
2022-12-07T04:53:46.859Z,10.15
2022-12-07T04:56:36.392Z,8.80
2022-12-07T04:59:22.617Z,8.65
2022-12-07T05:02:08.618Z,9.27
2022-12-07T05:04:55.141Z,8.63
2022-12-07T05:07:43.708Z,8.95
2022-12-07T05:10:30.298Z,9.38
2022-12-07T05:13:16.326Z,10.25
2022-12-07T05:16:02.930Z,8.07
2022-12-07T05:18:49.281Z,8.73
2022-12-07T05:21:35.656Z,7.55
2022-12-07T05:24:22.122Z,8.15
2022-12-07T05:27:09.143Z,8.40
2022-12-07T05:29:57.861Z,10.35
2022-12-07T05:32:43.799Z,8.52
2022-12-07T05:35:29.941Z,8.35
2022-12-07T05:38:15.860Z,9.05
2022-12-07T05:41:03.848Z,7.22
2022-12-07T05:43:49.957Z,7.25
2022-12-07T05:46:39.427Z,6.68
2022-12-07T05:49:26.098Z,6.72
2022-12-07T05:52:12.644Z,7.63
2022-12-07T05:54:58.479Z,7.85
2022-12-07T05:58:04.568Z,7.15
2022-12-07T06:00:51.621Z,6.68
2022-12-07T06:03:37.661Z,6.50
2022-12-07T06:06:24.135Z,7.13
2022-12-07T06:09:10.937Z,7.47
2022-12-07T06:12:16.450Z,7.25
2022-12-07T06:15:02.629Z,7.88
2022-12-07T06:17:48.677Z,7.55
2022-12-07T06:20:34.973Z,7.28
2022-12-07T06:23:23.980Z,8.00
2022-12-07T06:26:10.538Z,7.47
2022-12-07T06:28:57.935Z,6.13
2022-12-07T06:31:44.008Z,7.07
2022-12-07T06:34:30.190Z,7.15
2022-12-07T06:37:16.252Z,7.88
2022-12-07T06:40:02.932Z,7.50
2022-12-07T06:42:49.422Z,7.47
2022-12-07T06:45:35.624Z,7.38
2022-12-07T06:48:21.819Z,7.28
2022-12-07T06:51:08.036Z,10.07
2022-12-07T06:53:54.610Z,8.55
2022-12-07T06:56:40.966Z,7.75
2022-12-07T06:59:27.323Z,8.55
2022-12-07T07:02:16.677Z,6.72
2022-12-07T07:05:03.402Z,7.95
2022-12-07T07:08:20.789Z,8.13
2022-12-07T07:10:57.102Z,8.18
2022-12-07T07:13:43.290Z,8.52
2022-12-07T07:16:31.453Z,8.65
2022-12-07T07:19:21.046Z,8.77
2022-12-07T07:22:07.069Z,7.85
2022-12-07T07:24:53.456Z,8.65
2022-12-07T07:27:39.478Z,8.10
2022-12-07T07:30:26.240Z,9.18
2022-12-07T07:33:12.994Z,8.50
2022-12-07T07:35:59.173Z,8.48
2022-12-07T07:38:45.202Z,8.75
2022-12-07T07:41:31.058Z,8.43
2022-12-07T07:44:16.853Z,8.77
2022-12-07T07:47:03.630Z,8.13
2022-12-07T07:49:49.645Z,8.90
2022-12-07T07:52:35.749Z,9.55
2022-12-07T07:55:21.925Z,9.10
2022-12-07T07:58:08.555Z,8.60
2022-12-07T08:00:55.398Z,9.73
2022-12-07T08:03:41.182Z,9.27
2022-12-07T08:06:32.005Z,10.25
2022-12-07T08:09:18.531Z,9.38
2022-12-07T08:12:05.969Z,8.85
2022-12-07T08:14:55.242Z,9.32
2022-12-07T08:17:48.093Z,8.00
2022-12-07T08:20:36.495Z,8.23
2022-12-07T08:23:29.494Z,8.05
2022-12-07T08:26:18.781Z,9.80
2022-12-07T08:29:04.909Z,7.05
2022-12-07T08:31:51.194Z,8.05
2022-12-07T08:34:38.293Z,9.18
2022-12-07T08:37:24.253Z,7.47
2022-12-07T08:40:12.561Z,8.98
2022-12-07T08:42:59.174Z,8.95
2022-12-07T08:45:45.378Z,8.75
2022-12-07T08:48:32.182Z,8.05
2022-12-07T08:51:18.443Z,8.18
2022-12-07T08:54:08.710Z,8.20
2022-12-07T08:56:59.458Z,8.77
2022-12-07T08:59:45.825Z,8.57
2022-12-07T09:02:32.955Z,10.43
2022-12-07T09:05:19.379Z,9.90
2022-12-07T09:08:06.752Z,7.95
2022-12-07T09:10:53.237Z,6.97
2022-12-07T09:13:39.056Z,7.50
2022-12-07T09:16:25.143Z,8.20
2022-12-07T09:19:11.407Z,7.32
2022-12-07T09:21:57.361Z,7.47
2022-12-07T09:24:44.429Z,7.18
2022-12-07T09:27:31.330Z,6.00
2022-12-07T09:30:17.618Z,8.02
2022-12-07T09:33:04.136Z,6.88
2022-12-07T09:35:52.304Z,8.93
2022-12-07T09:38:38.361Z,8.35
2022-12-07T09:41:26.379Z,7.45
2022-12-07T09:44:25.546Z,7.70
2022-12-07T09:47:11.884Z,6.22
2022-12-07T09:50:06.126Z,6.20
2022-12-07T09:53:07.160Z,6.00
2022-12-07T09:55:54.621Z,6.85
2022-12-07T09:58:40.542Z,6.10
2022-12-07T10:01:31.701Z,6.80
2022-12-07T10:04:30.587Z,6.78
2022-12-07T10:07:16.646Z,6.40
2022-12-07T10:10:13.803Z,8.00
2022-12-07T10:13:06.051Z,9.60
2022-12-07T10:15:55.727Z,7.68
2022-12-07T10:18:43.180Z,7.03
2022-12-07T10:21:30.133Z,7.43
2022-12-07T10:24:16.307Z,7.80
2022-12-07T10:27:02.586Z,8.00
2022-12-07T10:29:51.169Z,8.70
2022-12-07T10:32:37.818Z,7.72
2022-12-07T10:35:29.899Z,8.82
2022-12-07T10:38:18.569Z,7.22
2022-12-07T10:41:08.810Z,7.43
2022-12-07T10:43:59.249Z,7.82
2022-12-07T10:47:20.547Z,7.32
2022-12-07T10:50:24.208Z,9.02
2022-12-07T10:53:34.475Z,7.95
2022-12-07T10:56:52.597Z,7.18
2022-12-07T11:00:00.139Z,8.13
2022-12-07T11:03:07.870Z,7.53
2022-12-07T11:06:35.745Z,7.32
2022-12-07T11:10:06.812Z,7.00
2022-12-07T11:13:26.660Z,6.50
2022-12-07T11:16:17.950Z,7.20
2022-12-07T11:19:07.273Z,6.20
2022-12-07T11:21:59.344Z,7.13
2022-12-07T11:25:16.051Z,7.80
2022-12-07T11:28:19.781Z,6.53
2022-12-07T11:31:28.772Z,6.28
2022-12-07T11:34:33.982Z,8.02
2022-12-07T11:37:25.254Z,8.10
2022-12-07T11:40:31.832Z,7.78
2022-12-07T11:43:29.325Z,7.88
2022-12-07T11:46:18.540Z,7.70
2022-12-07T11:49:04.771Z,6.53
2022-12-07T11:51:54.266Z,6.68
2022-12-07T11:54:45.971Z,7.20
2022-12-07T11:57:40.651Z,7.03
2022-12-07T12:00:36.379Z,6.90
2022-12-07T12:03:33.031Z,7.80
2022-12-07T12:06:20.980Z,7.40
2022-12-07T12:15:57.243Z,8.25
2022-12-07T12:18:55.114Z,7.90
2022-12-07T12:21:42.892Z,8.52
2022-12-07T12:24:37.378Z,8.32
2022-12-07T12:27:34.136Z,7.57
2022-12-07T12:30:33.395Z,7.05
2022-12-07T12:33:19.610Z,7.72
2022-12-07T12:36:17.849Z,7.05
2022-12-07T12:39:20.338Z,6.72
2022-12-07T12:42:22.214Z,7.20
2022-12-07T12:45:27.827Z,7.53
2022-12-07T12:48:40.543Z,7.15
2022-12-07T12:51:41.759Z,6.88
2022-12-07T12:54:31.366Z,6.85
2022-12-07T12:57:28.096Z,7.57
2022-12-07T13:00:17.082Z,7.72
2022-12-07T13:03:03.100Z,7.75
2022-12-07T13:05:49.338Z,8.60
2022-12-07T13:08:41.182Z,9.43
2022-12-07T13:11:44.529Z,8.10
2022-12-07T13:14:46.091Z,8.00
2022-12-07T13:17:32.513Z,8.98
2022-12-07T13:20:56.789Z,10.88
2022-12-07T13:23:46.038Z,8.20
2022-12-07T13:26:33.308Z,8.80
2022-12-07T13:29:21.587Z,8.20
2022-12-07T13:32:28.427Z,9.65
2022-12-07T13:35:38.350Z,8.40
2022-12-07T13:38:34.059Z,8.27
2022-12-07T13:41:25.697Z,7.60
2022-12-07T13:44:24.839Z,8.30
2022-12-07T13:47:20.703Z,7.85
2022-12-07T13:50:30.423Z,8.38
2022-12-07T13:53:20.814Z,9.57
2022-12-07T13:56:15.490Z,7.60
2022-12-07T14:01:50.396Z,8.73
2022-12-07T14:04:38.537Z,8.25
2022-12-07T14:07:29.317Z,8.98
2022-12-07T14:10:31.763Z,7.70
2022-12-07T14:13:40.377Z,7.28
2022-12-07T14:16:33.506Z,7.85
2022-12-07T14:19:48.722Z,7.00
2022-12-07T14:22:39.531Z,6.60
2022-12-07T14:25:27.829Z,6.10
2022-12-07T14:28:35.200Z,6.43
2022-12-07T14:31:30.522Z,5.57
2022-12-07T14:34:17.261Z,5.78
2022-12-07T14:37:03.071Z,5.55
2022-12-07T14:39:49.986Z,5.82
2022-12-07T14:42:36.614Z,5.20
2022-12-07T14:45:24.361Z,5.53
2022-12-07T14:54:34.075Z,5.78
2022-12-07T14:57:23.148Z,5.53
2022-12-07T15:00:15.545Z,6.50
2022-12-07T15:03:02.066Z,7.70
2022-12-07T15:05:48.489Z,7.65
2022-12-07T15:08:34.981Z,6.70
2022-12-07T15:11:23.561Z,7.90
2022-12-07T15:14:11.980Z,6.43
2022-12-07T15:20:04.828Z,6.63
2022-12-07T15:22:56.556Z,8.48
2022-12-07T15:25:47.866Z,7.68
2022-12-07T15:28:34.466Z,7.82
2022-12-07T15:31:47.012Z,7.55
2022-12-07T15:34:33.493Z,7.47
2022-12-07T15:37:25.883Z,6.65
2022-12-07T15:40:15.495Z,6.93
2022-12-07T15:43:02.272Z,8.80
2022-12-07T15:45:51.148Z,6.72
2022-12-07T15:48:36.952Z,8.25
2022-12-07T15:51:24.688Z,9.73
2022-12-07T15:54:25.946Z,9.77
2022-12-07T15:57:14.179Z,9.98
2022-12-07T16:00:00.473Z,7.43
2022-12-07T16:02:46.275Z,7.03
2022-12-07T16:05:34.367Z,6.30
2022-12-07T16:08:20.828Z,7.32
2022-12-07T16:11:07.805Z,7.97
2022-12-07T16:13:53.904Z,8.05
2022-12-07T16:16:41.362Z,8.15
2022-12-07T16:19:27.320Z,6.95
2022-12-07T16:22:13.477Z,8.90
2022-12-07T16:24:59.379Z,7.03
2022-12-07T16:27:45.540Z,7.00
2022-12-07T16:30:31.563Z,9.73
2022-12-07T16:33:19.510Z,8.30
2022-12-07T16:36:07.123Z,7.55
2022-12-07T16:38:53.868Z,7.47
2022-12-07T16:41:40.437Z,7.32
2022-12-07T16:44:32.648Z,6.75
2022-12-07T16:47:18.996Z,9.07
2022-12-07T16:50:05.434Z,7.78
2022-12-07T16:52:53.531Z,10.25
2022-12-07T16:55:41.865Z,9.35
2022-12-07T16:58:27.898Z,11.75
2022-12-07T17:01:19.580Z,9.55
2022-12-07T17:04:10.083Z,9.23
2022-12-07T17:06:56.203Z,9.63
2022-12-07T17:09:42.106Z,9.70
2022-12-07T17:12:29.056Z,9.43
2022-12-07T17:15:18.733Z,10.50
2022-12-07T17:18:08.342Z,9.48
2022-12-07T17:20:54.644Z,10.90
2022-12-07T17:23:40.774Z,8.32
2022-12-07T17:26:35.208Z,8.98
2022-12-07T17:29:24.587Z,9.57
2022-12-07T17:32:12.010Z,8.70
2022-12-07T17:34:58.642Z,9.38
2022-12-07T17:37:50.877Z,10.20
2022-12-07T17:40:37.390Z,11.82
2022-12-07T17:43:24.389Z,11.85
2022-12-07T17:46:13.657Z,12.63
2022-12-07T17:49:01.182Z,12.32
2022-12-07T17:52:06.620Z,10.52
2022-12-07T17:54:52.488Z,10.55
2022-12-07T17:57:38.811Z,10.55
2022-12-07T18:00:26.620Z,11.57
2022-12-07T18:03:12.705Z,11.50
2022-12-07T18:06:00.807Z,12.38
2022-12-07T18:08:53.171Z,14.20
2022-12-07T18:11:39.430Z,16.38
2022-12-07T18:14:25.775Z,12.05
2022-12-07T18:17:12.620Z,11.48
2022-12-07T18:19:58.780Z,10.05
2022-12-07T18:22:47.405Z,10.10
2022-12-07T18:25:33.736Z,10.43
2022-12-07T18:28:21.061Z,10.85
2022-12-07T18:31:15.770Z,12.43
2022-12-07T18:34:12.877Z,10.20
2022-12-07T18:36:58.879Z,10.77
2022-12-07T18:39:50.286Z,10.55
2022-12-07T18:42:39.785Z,11.38
2022-12-07T18:45:25.746Z,11.18
2022-12-07T18:48:16.857Z,11.55
2022-12-07T18:51:05.252Z,11.98
2022-12-07T18:53:54.098Z,11.52
2022-12-07T18:56:40.607Z,10.55
2022-12-07T18:59:44.908Z,11.40
2022-12-07T19:02:31.140Z,11.77
2022-12-07T19:05:23.769Z,12.48
2022-12-07T19:08:10.562Z,11.27
2022-12-07T19:11:20.852Z,10.05
2022-12-07T19:14:10.363Z,9.55
2022-12-07T19:17:08.916Z,10.55
2022-12-07T19:19:55.960Z,10.50
2022-12-07T19:22:42.334Z,10.98
2022-12-07T19:25:29.012Z,9.90
2022-12-07T19:28:15.410Z,11.38
2022-12-07T19:31:06.706Z,9.52
2022-12-07T19:33:56.089Z,10.93
2022-12-07T19:36:43.545Z,10.68
2022-12-07T19:39:30.105Z,11.15
2022-12-07T19:42:16.144Z,12.02
2022-12-07T19:45:03.552Z,12.15
2022-12-07T19:47:50.057Z,11.27
2022-12-07T19:50:35.919Z,13.23
2022-12-07T19:53:22.098Z,12.63
2022-12-07T19:56:08.416Z,11.57
2022-12-07T19:58:54.753Z,13.55
2022-12-07T20:01:42.361Z,12.02
2022-12-07T20:04:30.582Z,11.98
2022-12-07T20:07:16.848Z,11.07
2022-12-07T20:10:02.921Z,13.40
2022-12-07T20:13:07.431Z,13.68
2022-12-07T20:16:11.379Z,12.30
2022-12-07T20:19:00.386Z,13.60
2022-12-07T20:21:47.026Z,11.50
2022-12-07T20:24:35.093Z,13.20
2022-12-07T20:27:21.971Z,12.95
2022-12-07T20:30:08.829Z,11.60
2022-12-07T20:32:56.415Z,11.52
2022-12-07T20:35:42.800Z,13.43
2022-12-07T20:38:29.401Z,12.30
2022-12-07T20:41:34.020Z,12.80
2022-12-07T20:44:27.928Z,12.73
2022-12-07T20:47:14.646Z,15.38
2022-12-07T20:50:04.709Z,14.25
2022-12-07T20:52:50.526Z,13.75
2022-12-07T20:55:39.908Z,13.68
2022-12-07T20:58:28.606Z,13.68
2022-12-07T21:01:15.846Z,12.55
2022-12-07T21:04:08.820Z,12.82
2022-12-07T21:06:58.345Z,13.40
2022-12-07T21:09:52.746Z,13.70
2022-12-07T21:12:39.132Z,15.05
2022-12-07T21:15:25.282Z,13.15
2022-12-07T21:18:11.342Z,13.57
2022-12-07T21:21:02.937Z,14.60
2022-12-07T21:23:56.738Z,14.40
2022-12-07T21:26:46.142Z,13.95
2022-12-07T21:29:43.297Z,14.13
2022-12-07T21:32:30.361Z,13.85
2022-12-07T21:35:16.325Z,15.18
2022-12-07T21:38:02.726Z,18.52
2022-12-07T21:40:49.409Z,14.75
2022-12-07T21:43:35.346Z,15.02
2022-12-07T21:46:25.725Z,16.95
2022-12-07T21:49:17.269Z,17.58
2022-12-07T21:52:06.498Z,17.05
2022-12-07T21:54:52.793Z,16.30
2022-12-07T21:57:39.217Z,17.05
2022-12-07T22:00:27.957Z,15.32
2022-12-07T22:03:17.535Z,16.27
2022-12-07T22:06:10.194Z,15.43
2022-12-07T22:08:57.138Z,15.57
2022-12-07T22:11:43.145Z,15.20
2022-12-07T22:14:47.541Z,15.27
2022-12-07T22:17:36.495Z,15.10
2022-12-07T22:20:23.127Z,16.33
2022-12-07T22:23:12.365Z,16.75
2022-12-07T22:25:59.862Z,16.00
2022-12-07T22:28:46.393Z,16.50
2022-12-07T22:31:32.498Z,15.30
2022-12-07T22:34:22.784Z,15.90
2022-12-07T22:37:12.158Z,15.63
2022-12-07T22:39:59.254Z,15.07
2022-12-07T22:42:45.545Z,15.45
2022-12-07T22:45:31.480Z,15.13
2022-12-07T22:48:17.443Z,15.23
2022-12-07T22:51:03.379Z,14.60
2022-12-07T22:53:55.917Z,15.18
2022-12-07T22:56:43.054Z,16.40
2022-12-07T22:59:36.092Z,18.00
2022-12-07T23:02:22.680Z,16.13
2022-12-07T23:05:09.336Z,17.27
2022-12-07T23:07:56.431Z,15.88
2022-12-07T23:10:48.360Z,14.82
2022-12-07T23:13:40.627Z,15.40
2022-12-07T23:16:30.084Z,15.27
2022-12-07T23:19:16.239Z,18.23
2022-12-07T23:22:02.480Z,15.27
2022-12-07T23:24:51.400Z,15.55
2022-12-07T23:27:37.582Z,17.20
2022-12-07T23:30:31.817Z,15.85
2022-12-07T23:33:18.313Z,14.98
2022-12-07T23:36:08.279Z,15.20
2022-12-07T23:38:59.290Z,16.85
2022-12-07T23:41:47.651Z,15.68
2022-12-07T23:44:33.825Z,16.92
2022-12-07T23:47:21.753Z,14.82
2022-12-07T23:50:08.488Z,15.35
2022-12-07T23:52:59.285Z,15.77
2022-12-07T23:55:46.503Z,15.68
2022-12-07T23:58:33.616Z,16.02
